Time;durP1;ratioP1;P1;durP2;ratioP2;P2;SDS_P1;SDS_P2;PMS_P1;PMS_P2;Temp;Humidity;BMP_temperature;BMP_pressure;BME280_temperature;BME280_humidity;BME280_pressure;Samples;Min_cycle;Max_cycle;Signal;HPM_P1;HPM_P2
2024/01/08 00:00:29;;;;;;;1.75;1.60;;;15.60;56.20;;;;;;5112358;28;20532;-64
2024/01/08 00:02:55;;;;;;;1.65;1.55;;;15.60;56.20;;;;;;5112093;28;20168;-65
2024/01/08 00:05:20;;;;;;;1.48;1.38;;;15.60;56.10;;;;;;5112442;28;20542;-65
2024/01/08 00:07:46;;;;;;;1.63;1.52;;;15.60;56.10;;;;;;5112608;28;20169;-66
2024/01/08 00:10:11;;;;;;;1.90;1.80;;;15.60;56.10;;;;;;5111800;28;20199;-65
2024/01/08 00:12:37;;;;;;;2.20;2.00;;;15.60;56.10;;;;;;5112041;28;20261;-67
2024/01/08 00:15:03;;;;;;;1.60;1.50;;;15.60;56.10;;;;;;5112811;28;20606;-66
2024/01/08 00:17:28;;;;;;;3.30;2.08;;;15.60;56.10;;;;;;5111799;28;20177;-66
2024/01/08 00:19:54;;;;;;;2.35;1.40;;;15.60;56.20;;;;;;5098437;28;20225;-66
2024/01/08 00:22:19;;;;;;;1.95;1.70;;;15.50;56.20;;;;;;5111614;28;20226;-69
2024/01/08 00:24:45;;;;;;;1.52;1.42;;;15.50;56.20;;;;;;5112820;28;20181;-68
2024/01/08 00:27:13;;;;;;;1.98;1.85;;;15.50;56.50;;;;;;5112569;28;20255;-65
2024/01/08 00:29:39;;;;;;;2.10;1.48;;;15.40;56.20;;;;;;5112006;28;20173;-65
2024/01/08 00:32:05;;;;;;;1.90;1.80;;;15.40;56.20;;;;;;5112590;28;20345;-65
2024/01/08 00:34:31;;;;;;;1.80;1.70;;;15.40;56.30;;;;;;5112417;28;20550;-65
2024/01/08 00:36:56;;;;;;;1.60;1.50;;;15.40;56.30;;;;;;5111852;28;20198;-66
2024/01/08 00:39:22;;;;;;;1.50;1.40;;;15.30;56.60;;;;;;5112187;28;20708;-67
2024/01/08 00:41:47;;;;;;;1.90;1.80;;;15.30;56.60;;;;;;5112461;28;20226;-66
2024/01/08 00:44:13;;;;;;;1.67;1.58;;;15.30;56.70;;;;;;5111909;28;20181;-66
2024/01/08 00:46:38;;;;;;;1.42;1.33;;;15.20;56.60;;;;;;5112182;28;20260;-66
2024/01/08 00:49:04;;;;;;;2.25;2.00;;;15.20;56.60;;;;;;5112220;28;20161;-66
2024/01/08 00:51:29;;;;;;;2.40;1.40;;;15.20;56.70;;;;;;5111197;28;20208;-66
2024/01/08 00:53:56;;;;;;;1.70;1.60;;;15.20;56.60;;;;;;5112211;28;20172;-66
2024/01/08 00:56:22;;;;;;;1.50;1.40;;;15.20;56.70;;;;;;5111705;28;20816;-65
2024/01/08 00:58:47;;;;;;;1.80;1.70;;;15.20;56.70;;;;;;5111615;28;20255;-66
2024/01/08 01:01:13;;;;;;;1.75;1.65;;;15.10;56.70;;;;;;5112388;28;20169;-65
2024/01/08 01:03:38;;;;;;;1.60;1.50;;;15.10;56.70;;;;;;5112282;28;20165;-65
2024/01/08 01:06:04;;;;;;;1.40;1.30;;;15.10;56.70;;;;;;5113804;28;20173;-66
2024/01/08 01:08:29;;;;;;;2.08;1.67;;;15.10;56.70;;;;;;5115976;28;20273;-66
2024/01/08 01:10:55;;;;;;;3.10;2.00;;;15.00;56.60;;;;;;5116189;28;20212;-66
2024/01/08 01:13:20;;;;;;;1.83;1.67;;;15.00;56.70;;;;;;5115424;28;20172;-66
2024/01/08 01:15:46;;;;;;;1.58;1.40;;;15.00;56.70;;;;;;5116308;28;20229;-65
2024/01/08 01:18:12;;;;;;;1.77;1.67;;;15.00;56.70;;;;;;5116058;28;20165;-65
2024/01/08 01:20:37;;;;;;;1.80;1.70;;;15.00;56.60;;;;;;5115120;28;20180;-66
2024/01/08 01:23:03;;;;;;;1.75;1.65;;;15.00;56.60;;;;;;5115593;28;20620;-66
2024/01/08 01:25:28;;;;;;;1.65;1.55;;;15.00;56.70;;;;;;5115483;28;20177;-66
2024/01/08 01:27:54;;;;;;;1.60;1.50;;;14.90;56.60;;;;;;5115558;28;20191;-65
2024/01/08 01:30:22;;;;;;;1.60;1.50;;;14.90;56.60;;;;;;5115400;28;20173;-64
2024/01/08 01:32:48;;;;;;;1.50;1.40;;;14.90;56.60;;;;;;5115216;28;20184;-65
2024/01/08 01:35:13;;;;;;;1.98;1.80;;;14.90;56.60;;;;;;5115486;28;20585;-65
2024/01/08 01:37:41;;;;;;;1.88;1.77;;;14.90;56.60;;;;;;5115741;28;20514;-65
2024/01/08 01:40:08;;;;;;;1.60;1.50;;;14.80;56.60;;;;;;5114808;28;20173;-65
2024/01/08 01:42:33;;;;;;;1.40;1.30;;;14.80;56.50;;;;;;5115525;28;20181;-66
2024/01/08 01:44:59;;;;;;;1.80;1.70;;;14.80;56.60;;;;;;5115718;28;20169;-66
2024/01/08 01:47:25;;;;;;;1.85;1.75;;;14.80;56.70;;;;;;5114635;28;20196;-66
2024/01/08 01:49:50;;;;;;;1.80;1.70;;;14.80;56.70;;;;;;5115530;28;20226;-66
2024/01/08 01:52:16;;;;;;;1.80;1.70;;;14.80;56.60;;;;;;5115075;28;20213;-66
2024/01/08 01:54:41;;;;;;;1.83;1.73;;;14.80;56.70;;;;;;5114644;28;20272;-65
2024/01/08 01:57:07;;;;;;;1.70;1.60;;;14.70;56.70;;;;;;5096821;28;20248;-66
2024/01/08 01:59:32;;;;;;;1.70;1.60;;;14.70;56.60;;;;;;5096721;28;20174;-65
2024/01/08 02:01:58;;;;;;;1.70;1.60;;;14.70;56.70;;;;;;5096149;28;20172;-64
2024/01/08 02:04:30;;;;;;;1.55;1.45;;;14.70;56.60;;;;;;5115030;28;20179;-65
2024/01/08 02:06:56;;;;;;;1.67;1.58;;;14.70;56.60;;;;;;5115099;28;20636;-65
2024/01/08 02:09:22;;;;;;;1.60;1.50;;;14.70;56.60;;;;;;5113985;28;20234;-66
2024/01/08 02:11:48;;;;;;;1.50;1.40;;;14.70;56.60;;;;;;5114838;28;20708;-65
2024/01/08 02:14:13;;;;;;;1.70;1.60;;;14.70;56.70;;;;;;5114679;28;20177;-65
2024/01/08 02:16:39;;;;;;;1.50;1.40;;;14.70;56.70;;;;;;5113567;28;20268;-65
2024/01/08 02:19:05;;;;;;;1.80;1.70;;;14.70;56.70;;;;;;5114575;28;20176;-65
2024/01/08 02:21:30;;;;;;;1.50;1.40;;;14.60;56.70;;;;;;5114380;28;20533;-65
2024/01/08 02:23:56;;;;;;;1.70;1.60;;;14.60;56.60;;;;;;5113964;28;20180;-65
2024/01/08 02:26:21;;;;;;;1.73;1.63;;;14.60;56.70;;;;;;5096461;28;20250;-65
2024/01/08 02:28:47;;;;;;;1.50;1.40;;;14.60;56.60;;;;;;5114619;28;20220;-65
2024/01/08 02:31:12;;;;;;;1.50;1.40;;;14.60;57.30;;;;;;5113966;28;20248;-64
2024/01/08 02:33:38;;;;;;;1.63;1.52;;;14.60;56.60;;;;;;5114243;28;20166;-65
2024/01/08 02:36:04;;;;;;;1.58;1.40;;;14.60;56.60;;;;;;5113799;28;20245;-65
2024/01/08 02:38:29;;;;;;;1.67;1.58;;;14.60;56.70;;;;;;5114070;28;20542;-65
2024/01/08 02:40:57;;;;;;;2.00;1.90;;;14.60;56.60;;;;;;5114672;28;20177;-65
2024/01/08 02:43:23;;;;;;;1.92;1.83;;;14.60;56.70;;;;;;5113266;28;20252;-66
2024/01/08 02:45:49;;;;;;;1.70;1.60;;;14.50;56.60;;;;;;5114374;28;20269;-65
2024/01/08 02:48:14;;;;;;;2.08;1.85;;;14.60;56.70;;;;;;5114016;28;20173;-66
2024/01/08 02:50:41;;;;;;;1.50;1.40;;;14.50;56.60;;;;;;5113501;28;20557;-65
2024/01/08 02:53:06;;;;;;;1.52;1.42;;;14.60;56.70;;;;;;5114587;28;20177;-66
2024/01/08 02:55:32;;;;;;;1.75;1.60;;;14.50;56.70;;;;;;5113819;28;20172;-66
2024/01/08 02:57:57;;;;;;;1.83;1.73;;;14.50;56.60;;;;;;5113170;28;20180;-66
2024/01/08 03:00:23;;;;;;;1.70;1.60;;;14.50;56.70;;;;;;5113776;28;20165;-65
2024/01/08 03:02:48;;;;;;;1.40;1.33;;;14.50;56.60;;;;;;5114124;28;20181;-65
2024/01/08 03:05:14;;;;;;;1.80;1.70;;;14.40;56.60;;;;;;5112897;28;20185;-65
2024/01/08 03:07:39;;;;;;;1.70;1.60;;;14.50;56.60;;;;;;5113497;28;20517;-65
2024/01/08 03:10:05;;;;;;;1.63;1.52;;;14.40;56.60;;;;;;5113950;28;20169;-66
2024/01/08 03:12:31;;;;;;;1.85;1.75;;;14.40;56.50;;;;;;5112489;28;20212;-66
2024/01/08 03:14:57;;;;;;;1.90;1.80;;;14.40;56.60;;;;;;5113494;28;20169;-65
2024/01/08 03:17:23;;;;;;;1.65;1.55;;;14.40;56.60;;;;;;5111472;28;20184;-65
2024/01/08 03:19:49;;;;;;;1.50;1.40;;;14.40;56.60;;;;;;5112812;28;20169;-65
2024/01/08 03:22:14;;;;;;;1.65;1.55;;;14.40;56.60;;;;;;5113208;28;20203;-66
2024/01/08 03:24:40;;;;;;;1.70;1.60;;;14.40;56.50;;;;;;5113767;28;20630;-66
2024/01/08 03:27:05;;;;;;;1.90;1.80;;;14.40;56.60;;;;;;5112953;28;20726;-65
2024/01/08 03:29:31;;;;;;;1.58;1.48;;;14.40;56.60;;;;;;5112618;28;20560;-65
2024/01/08 03:31:56;;;;;;;1.67;1.58;;;14.40;56.60;;;;;;5113411;28;20215;-64
2024/01/08 03:34:22;;;;;;;1.73;1.63;;;14.40;56.70;;;;;;5112387;28;20169;-65
2024/01/08 03:36:48;;;;;;;1.80;1.70;;;14.40;56.60;;;;;;5113288;28;20508;-65
2024/01/08 03:39:14;;;;;;;1.70;1.60;;;14.30;56.60;;;;;;5112761;28;20543;-66
2024/01/08 03:41:40;;;;;;;1.73;1.63;;;14.30;56.60;;;;;;5113265;28;20184;-66
2024/01/08 03:44:06;;;;;;;1.50;1.40;;;14.30;56.60;;;;;;5113317;28;20177;-65
2024/01/08 03:46:32;;;;;;;1.50;1.40;;;14.30;56.60;;;;;;5112089;28;20289;-66
2024/01/08 03:48:57;;;;;;;1.83;1.73;;;14.30;56.60;;;;;;5113174;28;20268;-66
2024/01/08 03:51:23;;;;;;;1.60;1.50;;;14.30;56.60;;;;;;5112707;28;20375;-66
2024/01/08 03:53:48;;;;;;;1.80;1.70;;;14.30;56.60;;;;;;5112510;28;20267;-66
2024/01/08 03:56:14;;;;;;;1.92;1.80;;;14.30;56.60;;;;;;5112453;28;20225;-66
2024/01/08 03:58:39;;;;;;;1.70;1.60;;;14.30;56.70;;;;;;5112427;28;20200;-67
2024/01/08 04:01:05;;;;;;;2.17;1.98;;;14.30;56.70;;;;;;5111534;28;20169;-66
2024/01/08 04:03:30;;;;;;;2.35;1.67;;;14.30;56.70;;;;;;5111886;28;20217;-65
2024/01/08 04:05:59;;;;;;;1.80;1.70;;;14.30;56.70;;;;;;5112054;28;20177;-65
2024/01/08 04:08:24;;;;;;;1.65;1.55;;;14.30;56.70;;;;;;5111267;28;20197;-65
2024/01/08 04:10:50;;;;;;;1.85;1.70;;;14.20;56.60;;;;;;5111863;28;20654;-66
2024/01/08 04:13:15;;;;;;;1.75;1.65;;;14.20;56.60;;;;;;5111592;28;20252;-65
2024/01/08 04:15:41;;;;;;;1.60;1.50;;;14.20;56.70;;;;;;5111135;28;20256;-65
2024/01/08 04:18:08;;;;;;;2.05;1.83;;;14.20;56.70;;;;;;5112158;28;20256;-64
2024/01/08 04:20:33;;;;;;;1.80;1.70;;;14.20;56.70;;;;;;5111598;28;21027;-65
2024/01/08 04:22:59;;;;;;;1.85;1.75;;;14.20;56.70;;;;;;5110996;28;20639;-66
2024/01/08 04:25:24;;;;;;;1.90;1.65;;;14.20;56.70;;;;;;5111373;28;20173;-65
2024/01/08 04:27:50;;;;;;;1.83;1.70;;;14.20;56.70;;;;;;5111664;28;20263;-65
2024/01/08 04:30:15;;;;;;;2.00;1.90;;;14.20;56.70;;;;;;5110743;28;20260;-65
2024/01/08 04:32:41;;;;;;;1.80;1.70;;;14.20;56.70;;;;;;5111565;28;20291;-65
2024/01/08 04:35:06;;;;;;;1.88;1.73;;;14.20;56.70;;;;;;5111463;28;20303;-66
2024/01/08 04:37:33;;;;;;;2.08;1.70;;;14.10;56.70;;;;;;5110789;28;20284;-66
2024/01/08 04:39:59;;;;;;;2.00;1.90;;;14.10;56.70;;;;;;5110429;28;20179;-66
2024/01/08 04:42:24;;;;;;;2.00;1.88;;;14.10;56.70;;;;;;5111146;28;20177;-66
2024/01/08 04:44:50;;;;;;;1.90;1.70;;;14.10;56.70;;;;;;5111037;28;20176;-66
2024/01/08 04:47:15;;;;;;;1.80;1.67;;;14.10;56.70;;;;;;5111193;28;20177;-65
2024/01/08 04:49:41;;;;;;;1.92;1.83;;;14.10;56.70;;;;;;5110803;28;20169;-66
2024/01/08 04:52:07;;;;;;;2.13;1.92;;;14.10;56.80;;;;;;5111481;28;20208;-66
2024/01/08 04:54:32;;;;;;;1.98;1.88;;;14.10;56.80;;;;;;5111342;28;20191;-66
2024/01/08 04:56:58;;;;;;;3.20;2.22;;;14.10;56.80;;;;;;5074248;28;1046342;-65
2024/01/08 04:59:23;;;;;;;2.13;1.70;;;14.10;56.80;;;;;;5112038;28;20669;-65
2024/01/08 05:01:52;;;;;;;2.55;2.35;;;14.10;56.90;;;;;;5112223;28;20601;-65
2024/01/08 05:04:18;;;;;;;1.90;1.80;;;14.00;56.80;;;;;;5111227;28;20177;-65
2024/01/08 05:06:44;;;;;;;1.90;1.80;;;14.00;56.80;;;;;;5112358;28;20180;-66
2024/01/08 05:09:09;;;;;;;1.88;1.77;;;14.00;56.80;;;;;;5112337;28;20186;-65
2024/01/08 05:11:35;;;;;;;1.90;1.80;;;14.10;56.90;;;;;;5111010;28;20552;-66
2024/01/08 05:14:01;;;;;;;2.00;1.80;;;14.00;56.80;;;;;;5112197;28;20185;-65
2024/01/08 05:16:26;;;;;;;1.98;1.88;;;14.00;56.80;;;;;;5111880;28;20644;-66
2024/01/08 05:18:52;;;;;;;1.80;1.70;;;14.00;56.80;;;;;;5111376;28;20177;-66
2024/01/08 05:21:17;;;;;;;1.95;1.85;;;14.00;56.80;;;;;;5111903;28;20180;-66
2024/01/08 05:23:43;;;;;;;2.25;2.05;;;14.00;56.90;;;;;;5112163;28;20180;-66
2024/01/08 05:26:08;;;;;;;2.00;1.85;;;14.00;56.90;;;;;;5111403;28;20180;-65
2024/01/08 05:28:34;;;;;;;2.25;1.80;;;14.00;56.90;;;;;;5111695;28;20539;-65
2024/01/08 05:30:59;;;;;;;2.78;2.10;;;14.00;56.90;;;;;;5111832;28;20200;-65
2024/01/08 05:33:25;;;;;;;1.92;1.83;;;14.00;56.90;;;;;;5110855;28;20643;-65
2024/01/08 05:35:51;;;;;;;2.22;2.03;;;14.00;56.90;;;;;;5112145;28;20185;-66
2024/01/08 05:38:16;;;;;;;2.17;1.85;;;14.00;57.00;;;;;;5111569;28;20178;-65
2024/01/08 05:40:42;;;;;;;1.70;1.60;;;14.00;56.90;;;;;;5111287;28;20256;-66
2024/01/08 05:43:07;;;;;;;2.28;2.08;;;14.00;56.80;;;;;;5111971;28;20644;-66
2024/01/08 05:45:33;;;;;;;1.75;1.65;;;14.00;56.80;;;;;;5111621;28;20716;-66
2024/01/08 05:47:59;;;;;;;2.17;2.08;;;14.00;56.80;;;;;;5111077;28;20644;-66
2024/01/08 05:50:25;;;;;;;1.90;1.80;;;14.10;56.90;;;;;;5111677;28;20628;-66
2024/01/08 05:52:52;;;;;;;1.85;1.75;;;14.10;57.40;;;;;;5113694;28;20221;-66
2024/01/08 05:55:18;;;;;;;2.10;1.83;;;14.20;56.70;;;;;;5115166;28;20181;-66
2024/01/08 05:57:43;;;;;;;1.80;1.70;;;14.20;56.60;;;;;;5115196;28;20221;-65
2024/01/08 06:00:09;;;;;;;1.80;1.70;;;14.40;56.60;;;;;;5114636;28;20181;-66
2024/01/08 06:02:35;;;;;;;1.88;1.50;;;14.50;56.70;;;;;;5114920;28;20236;-65
2024/01/08 06:05:00;;;;;;;2.10;1.90;;;14.50;56.40;;;;;;5115467;28;20219;-66
2024/01/08 06:07:26;;;;;;;1.95;1.75;;;14.60;56.40;;;;;;5114348;28;20260;-66
2024/01/08 06:09:51;;;;;;;2.20;2.00;;;14.80;56.10;;;;;;5115242;28;20306;-65
2024/01/08 06:12:17;;;;;;;2.78;1.73;;;15.00;55.80;;;;;;5114758;28;20338;-66
2024/01/08 06:14:42;;;;;;;1.90;1.70;;;15.20;55.50;;;;;;5114333;28;20549;-65
2024/01/08 06:17:09;;;;;;;1.70;1.60;;;15.30;55.30;;;;;;5114936;28;20790;-65
2024/01/08 06:19:35;;;;;;;2.67;1.77;;;15.40;55.30;;;;;;5114907;28;20169;-66
2024/01/08 06:22:00;;;;;;;1.73;1.63;;;15.50;55.10;;;;;;5114299;28;20196;-66
2024/01/08 06:24:26;;;;;;;1.95;1.70;;;15.50;54.90;;;;;;5114635;28;20189;-66
2024/01/08 06:26:51;;;;;;;1.40;1.30;;;15.60;54.70;;;;;;5114837;28;20254;-65
2024/01/08 06:29:17;;;;;;;1.67;1.58;;;15.70;54.80;;;;;;5113717;28;20252;-65
2024/01/08 06:31:43;;;;;;;2.03;1.85;;;15.70;54.70;;;;;;5114569;28;20577;-65
2024/01/08 06:34:09;;;;;;;3.00;1.83;;;15.70;54.70;;;;;;5114568;28;20644;-66
2024/01/08 06:36:34;;;;;;;1.67;1.58;;;15.70;54.70;;;;;;5113550;28;20220;-66
2024/01/08 06:39:00;;;;;;;1.85;1.63;;;15.70;54.60;;;;;;5114782;28;20169;-65
2024/01/08 06:41:26;;;;;;;1.90;1.77;;;15.70;54.60;;;;;;5114353;28;20536;-66
2024/01/08 06:43:52;;;;;;;2.17;1.60;;;15.60;54.70;;;;;;5113819;28;20201;-66
2024/01/08 06:46:17;;;;;;;1.63;1.52;;;15.70;54.70;;;;;;5114145;28;20212;-66
2024/01/08 06:48:43;;;;;;;1.80;1.70;;;15.70;54.70;;;;;;5114685;28;20165;-66
2024/01/08 06:51:08;;;;;;;2.25;1.23;;;15.80;54.80;;;;;;5113767;28;20200;-66
2024/01/08 06:53:34;;;;;;;2.40;1.75;;;15.80;54.60;;;;;;5114001;28;20504;-66
2024/01/08 06:55:59;;;;;;;2.35;1.67;;;15.90;54.60;;;;;;5113995;28;20759;-65
2024/01/08 06:58:25;;;;;;;2.17;1.80;;;16.10;54.40;;;;;;5113199;28;20165;-65
2024/01/08 07:00:50;;;;;;;1.67;1.58;;;16.20;54.20;;;;;;5114125;28;20173;-65
2024/01/08 07:03:17;;;;;;;1.58;1.35;;;16.30;54.10;;;;;;5112070;28;20225;-65
2024/01/08 07:05:43;;;;;;;2.13;1.90;;;16.30;54.00;;;;;;5114157;28;20162;-66
2024/01/08 07:08:09;;;;;;;1.70;1.60;;;16.40;53.80;;;;;;5114041;28;20610;-66
2024/01/08 07:10:34;;;;;;;1.50;1.40;;;16.40;53.90;;;;;;5113031;28;20201;-66
2024/01/08 07:13:00;;;;;;;1.63;1.52;;;16.40;53.90;;;;;;5114040;28;20631;-65
2024/01/08 07:15:53;;;;;;;1.70;1.60;;;16.40;53.90;;;;;;5113507;28;20207;-65
2024/01/08 07:18:19;;;;;;;1.52;1.40;;;16.40;53.90;;;;;;5113055;28;20181;-64
2024/01/08 07:20:44;;;;;;;1.45;1.35;;;16.50;53.90;;;;;;5113793;28;20679;-65
2024/01/08 07:23:11;;;;;;;1.90;1.73;;;16.40;53.90;;;;;;5113688;28;20181;-66
2024/01/08 07:25:37;;;;;;;2.03;1.83;;;16.40;53.80;;;;;;5112696;28;20644;-65
2024/01/08 07:28:05;;;;;;;1.58;1.25;;;16.50;53.90;;;;;;5113550;28;20579;-65
2024/01/08 07:30:30;;;;;;;1.55;1.40;;;16.50;53.80;;;;;;5113525;28;20208;-64
2024/01/08 07:32:56;;;;;;;1.48;1.38;;;16.60;53.80;;;;;;5112835;28;20213;-65
2024/01/08 07:35:22;;;;;;;2.05;1.77;;;16.50;53.80;;;;;;5113147;28;20173;-67
2024/01/08 07:37:54;;;;;;;1.50;1.40;;;16.60;53.70;;;;;;5113464;28;20188;-65
2024/01/08 07:40:26;;;;;;;1.38;1.27;;;16.60;53.70;;;;;;5112538;28;20248;-66
2024/01/08 07:42:55;;;;;;;2.15;1.58;;;16.60;53.70;;;;;;5113392;28;20527;-65
2024/01/08 07:45:22;;;;;;;1.45;1.35;;;16.60;53.70;;;;;;5112280;28;20177;-66
2024/01/08 07:47:48;;;;;;;1.58;1.48;;;16.60;53.70;;;;;;5113424;28;20185;-65
2024/01/08 07:50:13;;;;;;;1.70;1.60;;;16.70;53.70;;;;;;5112996;28;20186;-65
2024/01/08 07:52:39;;;;;;;1.77;1.67;;;16.70;53.60;;;;;;5112471;28;21059;-65
2024/01/08 07:55:05;;;;;;;1.60;1.50;;;16.70;53.60;;;;;;5113173;28;20700;-67
2024/01/08 07:57:30;;;;;;;1.40;1.30;;;16.80;53.60;;;;;;5112853;28;20229;-66
2024/01/08 07:59:57;;;;;;;1.40;1.30;;;16.70;53.60;;;;;;5112603;28;20188;-65
2024/01/08 08:02:23;;;;;;;1.83;1.73;;;16.80;53.70;;;;;;5112731;28;20700;-65
2024/01/08 08:04:49;;;;;;;1.60;1.48;;;16.80;53.60;;;;;;5113103;28;20177;-65
2024/01/08 08:07:14;;;;;;;1.50;1.40;;;16.80;53.60;;;;;;5112082;28;20173;-66
2024/01/08 08:09:40;;;;;;;2.00;1.50;;;16.80;53.60;;;;;;5112814;28;20558;-66
2024/01/08 08:12:05;;;;;;;1.60;1.50;;;16.80;53.60;;;;;;5113060;28;20213;-65
2024/01/08 08:14:32;;;;;;;1.40;1.30;;;16.80;53.60;;;;;;5111608;28;20639;-66
2024/01/08 08:16:57;;;;;;;1.40;1.30;;;16.80;53.60;;;;;;5112986;28;20184;-65
2024/01/08 08:19:23;;;;;;;1.50;1.40;;;16.90;53.60;;;;;;5112570;28;20173;-65
2024/01/08 08:21:48;;;;;;;1.48;1.38;;;16.90;53.60;;;;;;5112079;28;20181;-66
2024/01/08 08:24:14;;;;;;;1.35;1.25;;;16.90;53.50;;;;;;5112305;28;20565;-65
2024/01/08 08:26:39;;;;;;;1.30;1.20;;;16.90;53.50;;;;;;5112917;28;20188;-65
2024/01/08 08:29:05;;;;;;;1.50;1.40;;;16.90;53.50;;;;;;5112084;28;20538;-66
2024/01/08 08:31:30;;;;;;;3.13;1.17;;;16.90;53.50;;;;;;5112214;28;20679;-65
2024/01/08 08:33:56;;;;;;;1.70;1.33;;;17.00;53.50;;;;;;5112502;28;20663;-65
2024/01/08 08:36:21;;;;;;;2.13;1.30;;;16.90;53.40;;;;;;5111485;28;20188;-66
2024/01/08 08:38:47;;;;;;;1.38;1.20;;;16.90;53.50;;;;;;5112470;28;20173;-66
2024/01/08 08:41:12;;;;;;;1.45;1.35;;;16.80;53.60;;;;;;5112987;28;20173;-66
2024/01/08 08:43:38;;;;;;;1.48;1.38;;;16.80;53.70;;;;;;5111677;28;20173;-66
2024/01/08 08:46:04;;;;;;;1.35;1.25;;;16.70;53.80;;;;;;5112507;28;20176;-65
2024/01/08 08:48:29;;;;;;;1.67;1.58;;;16.80;53.90;;;;;;5112287;28;20184;-67
2024/01/08 08:50:55;;;;;;;1.38;1.27;;;16.80;53.80;;;;;;5111883;28;20228;-66
2024/01/08 08:53:20;;;;;;;1.30;1.20;;;16.90;53.80;;;;;;5112111;28;20252;-65
2024/01/08 08:55:46;;;;;;;1.02;1.00;;;17.00;53.70;;;;;;5111712;28;20169;-67
2024/01/08 08:58:11;;;;;;;2.10;1.65;;;17.00;53.60;;;;;;5112485;28;20173;-64
2024/01/08 09:00:37;;;;;;;1.95;1.65;;;17.10;53.60;;;;;;5112035;28;20170;-64
2024/01/08 09:03:03;;;;;;;2.72;1.70;;;17.10;54.00;;;;;;5111653;28;20219;-63
2024/01/08 09:05:29;;;;;;;3.13;1.48;;;17.10;53.80;;;;;;5111894;28;20196;-64
2024/01/08 09:07:54;;;;;;;2.08;1.88;;;17.10;53.90;;;;;;5112050;28;20215;-65
2024/01/08 09:10:20;;;;;;;2.70;1.65;;;17.10;54.10;;;;;;5110954;28;20183;-64
2024/01/08 09:12:45;;;;;;;3.40;1.70;;;17.10;54.10;;;;;;5112117;28;20217;-63
2024/01/08 09:15:11;;;;;;;1.85;1.55;;;17.10;54.00;;;;;;5112336;28;20218;-64
2024/01/08 09:17:37;;;;;;;3.63;1.85;;;17.10;53.90;;;;;;5111328;28;20654;-67
2024/01/08 09:20:05;;;;;;;3.67;1.60;;;17.20;53.90;;;;;;5112424;28;20201;-67
2024/01/08 09:22:33;;;;;;;3.08;1.88;;;17.20;53.80;;;;;;5111676;28;20643;-67
2024/01/08 09:24:59;;;;;;;6.43;1.80;;;17.20;53.60;;;;;;5111378;28;20180;-66
2024/01/08 09:27:24;;;;;;;2.40;1.90;;;17.20;53.60;;;;;;5114538;28;20169;-65
2024/01/08 09:29:50;;;;;;;3.03;1.70;;;17.20;53.50;;;;;;5116148;28;20177;-65
2024/01/08 09:32:15;;;;;;;2.88;1.50;;;17.20;53.40;;;;;;5114947;28;20678;-66
2024/01/08 09:34:41;;;;;;;1.75;1.65;;;17.20;53.50;;;;;;5115812;28;20166;-66
2024/01/08 09:37:06;;;;;;;1.65;1.55;;;17.30;53.40;;;;;;5115861;28;20517;-67
2024/01/08 09:39:34;;;;;;;4.05;1.90;;;17.30;53.30;;;;;;5115021;28;20551;-67
2024/01/08 09:42:00;;;;;;;5.68;1.80;;;17.30;53.30;;;;;;5115899;28;20192;-67
2024/01/08 09:44:26;;;;;;;2.42;2.10;;;17.20;53.20;;;;;;5115423;28;20256;-67
2024/01/08 09:46:51;;;;;;;1.67;1.58;;;17.10;53.20;;;;;;5080035;28;20177;-67
2024/01/08 09:49:18;;;;;;;2.17;1.98;;;17.00;53.40;;;;;;5097241;28;20177;-68
2024/01/08 09:51:44;;;;;;;3.58;1.75;;;16.90;53.50;;;;;;5097487;28;20296;-67
2024/01/08 09:54:09;;;;;;;2.08;1.73;;;16.80;53.50;;;;;;5096553;28;20257;-66
2024/01/08 09:56:35;;;;;;;2.08;1.80;;;16.80;53.50;;;;;;5115246;28;20252;-65
2024/01/08 09:59:00;;;;;;;2.38;1.75;;;16.80;53.50;;;;;;5114872;28;20707;-66
2024/01/08 10:01:26;;;;;;;1.80;1.70;;;16.70;53.50;;;;;;5115066;28;20177;-65
2024/01/08 10:03:52;;;;;;;2.78;1.95;;;16.70;53.40;;;;;;5115315;28;20226;-66
2024/01/08 10:06:18;;;;;;;3.67;1.77;;;16.80;53.40;;;;;;5114303;28;20952;-67
2024/01/08 10:08:43;;;;;;;2.20;1.63;;;16.80;53.40;;;;;;5115168;28;20208;-68
2024/01/08 10:11:10;;;;;;;1.77;1.42;;;16.80;53.30;;;;;;5115208;28;20224;-67
2024/01/08 10:13:35;;;;;;;1.67;1.52;;;16.80;53.30;;;;;;5079060;28;20201;-66
2024/01/08 10:16:01;;;;;;;2.15;1.88;;;16.80;53.20;;;;;;5115170;28;20208;-66
2024/01/08 10:18:28;;;;;;;1.92;1.70;;;16.80;53.20;;;;;;5114748;28;20185;-66
2024/01/08 10:21:10;;;;;;;2.25;1.88;;;16.80;53.10;;;;;;5114158;28;20173;-66
2024/01/08 10:23:35;;;;;;;1.70;1.60;;;16.80;53.00;;;;;;5114916;28;20173;-66
2024/01/08 10:26:01;;;;;;;1.90;1.80;;;16.80;53.10;;;;;;5114887;28;20246;-66
2024/01/08 10:28:26;;;;;;;2.15;1.90;;;16.80;53.00;;;;;;5095721;28;20181;-66
2024/01/08 10:30:56;;;;;;;3.78;2.10;;;16.80;52.90;;;;;;5096538;28;20184;-65
2024/01/08 10:33:24;;;;;;;2.08;1.88;;;16.80;52.70;;;;;;5114534;28;20260;-66
2024/01/08 10:35:50;;;;;;;2.15;1.85;;;16.90;52.70;;;;;;5096638;28;20208;-67
2024/01/08 10:38:16;;;;;;;1.77;1.67;;;16.90;52.70;;;;;;5096128;28;20635;-68
2024/01/08 10:40:41;;;;;;;2.05;1.67;;;16.90;52.50;;;;;;5096504;28;20199;-68
2024/01/08 10:43:07;;;;;;;2.00;1.80;;;16.90;52.50;;;;;;5078854;28;20176;-69
2024/01/08 10:45:33;;;;;;;2.65;1.75;;;16.90;52.50;;;;;;5114303;28;20161;-68
2024/01/08 10:48:11;;;;;;;1.85;1.58;;;16.90;52.40;;;;;;5114448;28;20181;-68
2024/01/08 10:50:38;;;;;;;1.67;1.58;;;16.90;52.40;;;;;;5113862;28;20173;-67
2024/01/08 10:53:04;;;;;;;1.85;1.70;;;16.90;52.40;;;;;;5114215;28;20208;-68
2024/01/08 10:55:30;;;;;;;2.10;1.52;;;16.90;52.40;;;;;;5078312;28;20176;-68
2024/01/08 10:57:57;;;;;;;2.17;1.77;;;16.80;52.40;;;;;;5079588;28;20636;-68
2024/01/08 11:00:23;;;;;;;1.63;1.50;;;16.80;52.30;;;;;;5095765;28;20706;-67
2024/01/08 11:02:48;;;;;;;3.08;1.85;;;16.80;52.40;;;;;;5113868;28;20192;-69
2024/01/08 11:05:14;;;;;;;1.88;1.67;;;16.80;52.50;;;;;;5078749;28;20172;-69
2024/01/08 11:07:40;;;;;;;1.80;1.70;;;16.80;52.30;;;;;;5114080;28;20177;-69
2024/01/08 11:10:09;;;;;;;2.10;1.90;;;16.80;52.30;;;;;;5113340;28;20169;-68
2024/01/08 11:12:55;;;;;;;2.15;1.75;;;16.80;52.20;;;;;;5113703;28;20224;-69
2024/01/08 11:15:27;;;;;;;1.73;1.60;;;16.80;52.80;;;;;;5097288;28;20703;-69
2024/01/08 11:17:53;;;;;;;1.90;1.70;;;16.80;52.10;;;;;;5113194;28;20538;-68
2024/01/08 11:20:34;;;;;;;3.13;1.65;;;16.80;52.00;;;;;;5113543;28;20232;-69
2024/01/08 11:23:03;;;;;;;2.03;1.67;;;16.80;51.80;;;;;;5113887;28;20260;-65
2024/01/08 11:25:29;;;;;;;2.42;1.73;;;16.80;51.90;;;;;;5094575;28;20177;-66
2024/01/08 11:27:58;;;;;;;1.88;1.67;;;16.80;51.80;;;;;;5114183;28;20176;-66
2024/01/08 11:30:23;;;;;;;3.58;2.10;;;16.80;51.90;;;;;;5112923;28;20177;-66
2024/01/08 11:32:52;;;;;;;2.08;1.60;;;16.70;52.00;;;;;;5113485;28;20567;-66
2024/01/08 11:35:19;;;;;;;1.67;1.58;;;16.70;52.00;;;;;;5113248;28;20180;-67
2024/01/08 11:37:45;;;;;;;2.45;1.73;;;16.60;52.20;;;;;;5112632;28;20179;-67
2024/01/08 11:40:18;;;;;;;2.58;1.50;;;16.60;52.30;;;;;;5078576;28;20263;-67
2024/01/08 11:42:49;;;;;;;1.58;1.45;;;16.60;52.40;;;;;;5113323;28;20662;-68
2024/01/08 11:45:16;;;;;;;2.03;1.60;;;16.60;52.40;;;;;;5112225;28;20176;-67
2024/01/08 11:47:42;;;;;;;2.28;1.25;;;16.70;52.50;;;;;;5113369;28;20177;-67
2024/01/08 11:50:08;;;;;;;1.70;1.60;;;16.70;52.40;;;;;;5112813;28;20184;-66
2024/01/08 11:52:36;;;;;;;2.08;1.67;;;16.70;52.50;;;;;;5111981;28;20209;-67
2024/01/08 11:55:03;;;;;;;2.33;1.58;;;16.80;52.50;;;;;;5095681;28;20177;-66
2024/01/08 11:57:29;;;;;;;2.30;1.50;;;16.80;52.50;;;;;;5112737;28;20240;-66
2024/01/08 11:59:54;;;;;;;1.23;1.13;;;16.80;52.50;;;;;;5077599;28;20169;-66
2024/01/08 12:02:24;;;;;;;2.95;1.60;;;16.80;52.50;;;;;;5112760;28;20177;-66
2024/01/08 12:05:00;;;;;;;2.85;1.60;;;16.80;52.60;;;;;;5113125;28;20191;-65
2024/01/08 12:07:26;;;;;;;1.73;1.52;;;16.70;52.60;;;;;;5112160;28;20176;-66
2024/01/08 12:09:53;;;;;;;1.63;1.52;;;16.70;52.80;;;;;;5113197;28;20177;-66
2024/01/08 12:12:19;;;;;;;2.45;1.50;;;16.70;52.70;;;;;;5111605;28;20257;-66
2024/01/08 12:14:48;;;;;;;2.00;1.50;;;16.60;52.60;;;;;;5112223;28;20256;-66
2024/01/08 12:17:15;;;;;;;3.40;1.50;;;16.60;52.70;;;;;;5112541;28;20200;-65
2024/01/08 12:19:45;;;;;;;2.10;1.55;;;16.60;52.90;;;;;;5111997;28;20206;-65
2024/01/08 12:22:11;;;;;;;1.70;1.60;;;16.60;52.50;;;;;;5112709;28;20577;-65
2024/01/08 12:24:38;;;;;;;1.42;1.27;;;16.60;52.60;;;;;;5112628;28;20177;-67
2024/01/08 12:27:04;;;;;;;2.80;1.38;;;16.60;52.80;;;;;;5093867;28;20170;-65
2024/01/08 12:29:30;;;;;;;2.28;1.60;;;16.60;52.90;;;;;;5112516;28;20177;-65
2024/01/08 12:32:03;;;;;;;3.40;1.67;;;16.60;53.10;;;;;;5112435;28;20216;-66
2024/01/08 12:34:32;;;;;;;1.67;1.30;;;16.50;53.20;;;;;;5111642;28;20185;-66
2024/01/08 12:36:58;;;;;;;1.58;1.42;;;16.50;53.00;;;;;;5112627;28;20742;-66
2024/01/08 12:39:25;;;;;;;2.97;1.73;;;16.50;53.10;;;;;;5112351;28;20185;-68
2024/01/08 12:41:55;;;;;;;1.75;1.65;;;16.40;53.00;;;;;;5111773;28;20184;-66